sensor_id;sensor_type;location;lat;lon;timestamp;P1;durP1;ratioP1;P2;durP2;ratioP2
82783;SDS011;72520;55.762;37.780;2024-01-06T00:02:34;3.78;;;2.05;;
82783;SDS011;72520;55.762;37.780;2024-01-06T00:05:37;10.48;;;3.15;;
82783;SDS011;72520;55.762;37.780;2024-01-06T00:08:40;9.13;;;2.60;;
82783;SDS011;72520;55.762;37.780;2024-01-06T00:11:48;8.93;;;3.63;;
82783;SDS011;72520;55.762;37.780;2024-01-06T00:15:50;5.07;;;2.13;;
82783;SDS011;72520;55.762;37.780;2024-01-06T00:18:52;1.95;;;0.55;;
82783;SDS011;72520;55.762;37.780;2024-01-06T00:21:54;3.03;;;1.25;;
82783;SDS011;72520;55.762;37.780;2024-01-06T00:24:58;7.55;;;2.72;;
82783;SDS011;72520;55.762;37.780;2024-01-06T00:28:01;6.68;;;2.53;;
82783;SDS011;72520;55.762;37.780;2024-01-06T00:31:04;11.60;;;3.28;;
82783;SDS011;72520;55.762;37.780;2024-01-06T00:34:07;9.10;;;3.03;;
82783;SDS011;72520;55.762;37.780;2024-01-06T00:37:09;9.60;;;2.65;;
82783;SDS011;72520;55.762;37.780;2024-01-06T00:40:13;3.28;;;1.75;;
82783;SDS011;72520;55.762;37.780;2024-01-06T00:43:15;1.58;;;0.73;;
82783;SDS011;72520;55.762;37.780;2024-01-06T00:46:17;10.00;;;3.03;;
82783;SDS011;72520;55.762;37.780;2024-01-06T00:49:19;9.52;;;3.08;;
82783;SDS011;72520;55.762;37.780;2024-01-06T00:52:22;6.45;;;2.95;;
82783;SDS011;72520;55.762;37.780;2024-01-06T00:55:25;7.50;;;2.53;;
82783;SDS011;72520;55.762;37.780;2024-01-06T01:01:40;9.98;;;1.38;;
82783;SDS011;72520;55.762;37.780;2024-01-06T01:04:42;3.03;;;1.90;;
82783;SDS011;72520;55.762;37.780;2024-01-06T01:07:45;16.63;;;4.60;;
82783;SDS011;72520;55.762;37.780;2024-01-06T01:10:48;6.78;;;2.47;;
82783;SDS011;72520;55.762;37.780;2024-01-06T01:13:50;11.00;;;3.42;;
82783;SDS011;72520;55.762;37.780;2024-01-06T01:16:53;3.33;;;1.85;;
82783;SDS011;72520;55.762;37.780;2024-01-06T01:19:55;0.80;;;0.80;;
82783;SDS011;72520;55.762;37.780;2024-01-06T01:22:57;1.38;;;0.90;;
82783;SDS011;72520;55.762;37.780;2024-01-06T01:26:01;1.92;;;1.08;;
82783;SDS011;72520;55.762;37.780;2024-01-06T01:29:03;4.60;;;2.75;;
82783;SDS011;72520;55.762;37.780;2024-01-06T01:32:06;5.10;;;2.97;;
82783;SDS011;72520;55.762;37.780;2024-01-06T01:35:08;6.43;;;2.25;;
82783;SDS011;72520;55.762;37.780;2024-01-06T01:38:10;9.90;;;3.45;;
82783;SDS011;72520;55.762;37.780;2024-01-06T01:41:14;1.92;;;1.30;;
82783;SDS011;72520;55.762;37.780;2024-01-06T01:44:16;8.00;;;2.85;;
82783;SDS011;72520;55.762;37.780;2024-01-06T01:47:19;9.52;;;4.13;;
82783;SDS011;72520;55.762;37.780;2024-01-06T01:50:22;8.48;;;3.42;;
82783;SDS011;72520;55.762;37.780;2024-01-06T01:53:28;4.63;;;2.00;;
82783;SDS011;72520;55.762;37.780;2024-01-06T01:56:33;11.38;;;3.78;;
82783;SDS011;72520;55.762;37.780;2024-01-06T01:59:35;1.85;;;1.08;;
82783;SDS011;72520;55.762;37.780;2024-01-06T02:02:38;2.20;;;1.20;;
82783;SDS011;72520;55.762;37.780;2024-01-06T02:05:40;11.43;;;2.45;;
82783;SDS011;72520;55.762;37.780;2024-01-06T02:08:43;7.30;;;2.53;;
82783;SDS011;72520;55.762;37.780;2024-01-06T02:11:46;4.25;;;2.40;;
82783;SDS011;72520;55.762;37.780;2024-01-06T02:14:49;2.67;;;1.42;;
82783;SDS011;72520;55.762;37.780;2024-01-06T02:17:51;7.32;;;2.58;;
82783;SDS011;72520;55.762;37.780;2024-01-06T02:20:53;9.15;;;3.78;;
82783;SDS011;72520;55.762;37.780;2024-01-06T02:24:01;6.30;;;1.98;;
82783;SDS011;72520;55.762;37.780;2024-01-06T02:27:04;7.72;;;2.33;;
82783;SDS011;72520;55.762;37.780;2024-01-06T02:30:06;7.78;;;3.05;;
82783;SDS011;72520;55.762;37.780;2024-01-06T02:33:09;6.65;;;1.55;;
82783;SDS011;72520;55.762;37.780;2024-01-06T02:36:11;8.57;;;3.13;;
82783;SDS011;72520;55.762;37.780;2024-01-06T02:39:15;4.82;;;2.30;;
82783;SDS011;72520;55.762;37.780;2024-01-06T02:42:17;1.10;;;0.63;;
82783;SDS011;72520;55.762;37.780;2024-01-06T02:45:21;3.00;;;1.88;;
82783;SDS011;72520;55.762;37.780;2024-01-06T02:48:23;6.07;;;2.65;;
82783;SDS011;72520;55.762;37.780;2024-01-06T02:51:25;5.55;;;2.00;;
82783;SDS011;72520;55.762;37.780;2024-01-06T02:54:29;8.55;;;2.20;;
82783;SDS011;72520;55.762;37.780;2024-01-06T02:57:31;5.65;;;2.85;;
82783;SDS011;72520;55.762;37.780;2024-01-06T03:00:33;13.48;;;3.30;;
82783;SDS011;72520;55.762;37.780;2024-01-06T03:03:36;4.57;;;2.58;;
82783;SDS011;72520;55.762;37.780;2024-01-06T03:06:38;8.43;;;3.10;;
82783;SDS011;72520;55.762;37.780;2024-01-06T03:09:44;7.07;;;2.17;;
82783;SDS011;72520;55.762;37.780;2024-01-06T03:12:47;7.03;;;2.53;;
82783;SDS011;72520;55.762;37.780;2024-01-06T03:15:49;2.15;;;1.15;;
82783;SDS011;72520;55.762;37.780;2024-01-06T03:18:51;4.40;;;1.45;;
82783;SDS011;72520;55.762;37.780;2024-01-06T03:21:53;11.07;;;2.28;;
82783;SDS011;72520;55.762;37.780;2024-01-06T03:24:59;6.57;;;2.35;;
82783;SDS011;72520;55.762;37.780;2024-01-06T03:28:08;8.02;;;2.85;;
82783;SDS011;72520;55.762;37.780;2024-01-06T03:31:10;8.73;;;3.28;;
82783;SDS011;72520;55.762;37.780;2024-01-06T03:34:12;5.28;;;2.38;;
82783;SDS011;72520;55.762;37.780;2024-01-06T03:37:15;4.50;;;2.15;;
82783;SDS011;72520;55.762;37.780;2024-01-06T03:40:21;6.00;;;2.20;;
82783;SDS011;72520;55.762;37.780;2024-01-06T03:43:24;9.35;;;3.47;;
82783;SDS011;72520;55.762;37.780;2024-01-06T03:46:34;4.90;;;1.58;;
82783;SDS011;72520;55.762;37.780;2024-01-06T03:49:37;5.20;;;1.80;;
82783;SDS011;72520;55.762;37.780;2024-01-06T03:52:39;7.50;;;2.80;;
82783;SDS011;72520;55.762;37.780;2024-01-06T03:55:42;1.65;;;1.17;;
82783;SDS011;72520;55.762;37.780;2024-01-06T03:58:45;2.85;;;1.02;;
82783;SDS011;72520;55.762;37.780;2024-01-06T04:01:47;2.95;;;1.55;;
82783;SDS011;72520;55.762;37.780;2024-01-06T04:04:49;2.22;;;0.82;;
82783;SDS011;72520;55.762;37.780;2024-01-06T04:07:51;0.80;;;0.80;;
82783;SDS011;72520;55.762;37.780;2024-01-06T04:10:55;11.00;;;3.55;;
82783;SDS011;72520;55.762;37.780;2024-01-06T04:13:58;5.47;;;1.40;;
82783;SDS011;72520;55.762;37.780;2024-01-06T04:17:00;6.25;;;1.90;;
82783;SDS011;72520;55.762;37.780;2024-01-06T04:20:02;3.70;;;1.20;;
82783;SDS011;72520;55.762;37.780;2024-01-06T04:23:05;5.53;;;1.95;;
82783;SDS011;72520;55.762;37.780;2024-01-06T04:26:09;6.03;;;1.90;;
82783;SDS011;72520;55.762;37.780;2024-01-06T04:29:11;3.20;;;1.60;;
82783;SDS011;72520;55.762;37.780;2024-01-06T04:32:14;4.88;;;2.28;;
82783;SDS011;72520;55.762;37.780;2024-01-06T04:35:16;3.28;;;1.95;;
82783;SDS011;72520;55.762;37.780;2024-01-06T04:38:18;4.00;;;1.85;;
82783;SDS011;72520;55.762;37.780;2024-01-06T04:41:22;3.97;;;1.88;;
82783;SDS011;72520;55.762;37.780;2024-01-06T04:44:24;3.25;;;1.33;;
82783;SDS011;72520;55.762;37.780;2024-01-06T04:47:27;5.45;;;2.20;;
82783;SDS011;72520;55.762;37.780;2024-01-06T04:50:30;4.32;;;2.53;;
82783;SDS011;72520;55.762;37.780;2024-01-06T04:53:33;1.17;;;0.95;;
82783;SDS011;72520;55.762;37.780;2024-01-06T04:56:36;4.70;;;1.55;;
82783;SDS011;72520;55.762;37.780;2024-01-06T04:59:38;1.25;;;0.75;;
82783;SDS011;72520;55.762;37.780;2024-01-06T05:02:41;2.55;;;1.98;;
82783;SDS011;72520;55.762;37.780;2024-01-06T05:05:43;5.70;;;3.70;;
82783;SDS011;72520;55.762;37.780;2024-01-06T05:08:45;7.28;;;1.52;;
82783;SDS011;72520;55.762;37.780;2024-01-06T05:11:49;7.15;;;2.42;;
82783;SDS011;72520;55.762;37.780;2024-01-06T05:14:51;6.78;;;2.17;;
82783;SDS011;72520;55.762;37.780;2024-01-06T05:17:53;3.13;;;2.10;;
82783;SDS011;72520;55.762;37.780;2024-01-06T05:20:56;3.75;;;1.52;;
82783;SDS011;72520;55.762;37.780;2024-01-06T05:23:59;2.28;;;1.38;;
82783;SDS011;72520;55.762;37.780;2024-01-06T05:27:02;12.38;;;3.22;;
82783;SDS011;72520;55.762;37.780;2024-01-06T05:30:05;2.10;;;1.45;;
82783;SDS011;72520;55.762;37.780;2024-01-06T05:33:09;6.47;;;1.80;;
82783;SDS011;72520;55.762;37.780;2024-01-06T05:36:13;1.50;;;1.17;;
82783;SDS011;72520;55.762;37.780;2024-01-06T05:39:16;3.60;;;1.75;;
82783;SDS011;72520;55.762;37.780;2024-01-06T05:42:20;5.43;;;1.83;;
82783;SDS011;72520;55.762;37.780;2024-01-06T05:45:22;2.92;;;1.90;;
82783;SDS011;72520;55.762;37.780;2024-01-06T05:48:24;7.72;;;3.10;;
82783;SDS011;72520;55.762;37.780;2024-01-06T05:51:29;15.88;;;4.15;;
82783;SDS011;72520;55.762;37.780;2024-01-06T05:54:32;2.88;;;1.75;;
82783;SDS011;72520;55.762;37.780;2024-01-06T05:57:36;6.07;;;2.33;;
82783;SDS011;72520;55.762;37.780;2024-01-06T06:00:38;4.63;;;1.92;;
82783;SDS011;72520;55.762;37.780;2024-01-06T06:03:40;11.52;;;4.88;;
82783;SDS011;72520;55.762;37.780;2024-01-06T06:06:43;8.25;;;2.83;;
82783;SDS011;72520;55.762;37.780;2024-01-06T06:09:48;2.65;;;2.25;;
82783;SDS011;72520;55.762;37.780;2024-01-06T06:12:51;4.57;;;2.92;;
82783;SDS011;72520;55.762;37.780;2024-01-06T06:15:53;12.77;;;3.80;;
82783;SDS011;72520;55.762;37.780;2024-01-06T06:18:56;4.60;;;2.25;;
82783;SDS011;72520;55.762;37.780;2024-01-06T06:21:59;3.35;;;1.63;;
82783;SDS011;72520;55.762;37.780;2024-01-06T06:25:01;4.90;;;2.95;;
82783;SDS011;72520;55.762;37.780;2024-01-06T06:28:06;7.22;;;2.33;;
82783;SDS011;72520;55.762;37.780;2024-01-06T06:31:08;1.98;;;1.17;;
82783;SDS011;72520;55.762;37.780;2024-01-06T06:34:10;3.42;;;2.40;;
82783;SDS011;72520;55.762;37.780;2024-01-06T06:37:13;14.63;;;5.65;;
82783;SDS011;72520;55.762;37.780;2024-01-06T06:40:16;6.10;;;2.42;;
82783;SDS011;72520;55.762;37.780;2024-01-06T06:43:21;6.57;;;1.50;;
82783;SDS011;72520;55.762;37.780;2024-01-06T06:46:23;10.13;;;3.75;;
82783;SDS011;72520;55.762;37.780;2024-01-06T06:49:26;3.78;;;2.33;;
82783;SDS011;72520;55.762;37.780;2024-01-06T06:52:28;3.92;;;2.75;;
82783;SDS011;72520;55.762;37.780;2024-01-06T06:55:30;5.75;;;2.10;;
82783;SDS011;72520;55.762;37.780;2024-01-06T06:58:34;8.18;;;1.55;;
82783;SDS011;72520;55.762;37.780;2024-01-06T07:01:37;8.55;;;3.03;;
82783;SDS011;72520;55.762;37.780;2024-01-06T07:04:39;2.85;;;1.42;;
82783;SDS011;72520;55.762;37.780;2024-01-06T07:07:42;4.35;;;1.73;;
82783;SDS011;72520;55.762;37.780;2024-01-06T07:10:47;9.40;;;3.03;;
82783;SDS011;72520;55.762;37.780;2024-01-06T07:13:50;2.38;;;1.00;;
82783;SDS011;72520;55.762;37.780;2024-01-06T07:16:53;4.20;;;2.28;;
82783;SDS011;72520;55.762;37.780;2024-01-06T07:19:55;6.35;;;2.00;;
82783;SDS011;72520;55.762;37.780;2024-01-06T07:22:57;7.55;;;2.10;;
82783;SDS011;72520;55.762;37.780;2024-01-06T07:26:00;3.15;;;1.90;;
82783;SDS011;72520;55.762;37.780;2024-01-06T07:29:04;7.68;;;3.53;;
82783;SDS011;72520;55.762;37.780;2024-01-06T07:32:07;12.95;;;3.92;;
82783;SDS011;72520;55.762;37.780;2024-01-06T07:35:09;13.77;;;5.53;;
82783;SDS011;72520;55.762;37.780;2024-01-06T07:38:11;15.25;;;5.40;;
82783;SDS011;72520;55.762;37.780;2024-01-06T07:41:14;12.57;;;4.65;;
82783;SDS011;72520;55.762;37.780;2024-01-06T07:44:18;12.40;;;5.65;;
82783;SDS011;72520;55.762;37.780;2024-01-06T07:47:26;15.75;;;5.40;;
82783;SDS011;72520;55.762;37.780;2024-01-06T07:50:36;5.40;;;2.90;;
82783;SDS011;72520;55.762;37.780;2024-01-06T07:53:38;10.77;;;2.72;;
82783;SDS011;72520;55.762;37.780;2024-01-06T07:56:40;4.03;;;2.35;;
82783;SDS011;72520;55.762;37.780;2024-01-06T07:59:48;5.40;;;2.13;;
82783;SDS011;72520;55.762;37.780;2024-01-06T08:02:51;8.70;;;4.97;;
82783;SDS011;72520;55.762;37.780;2024-01-06T08:05:53;7.35;;;3.00;;
82783;SDS011;72520;55.762;37.780;2024-01-06T08:08:56;13.02;;;2.67;;
82783;SDS011;72520;55.762;37.780;2024-01-06T08:11:59;13.82;;;5.40;;
82783;SDS011;72520;55.762;37.780;2024-01-06T08:15:03;7.50;;;2.38;;
82783;SDS011;72520;55.762;37.780;2024-01-06T08:18:07;9.15;;;4.05;;
82783;SDS011;72520;55.762;37.780;2024-01-06T08:21:10;7.53;;;3.30;;
82783;SDS011;72520;55.762;37.780;2024-01-06T08:24:12;13.50;;;4.95;;
82783;SDS011;72520;55.762;37.780;2024-01-06T08:27:14;14.57;;;4.88;;
82783;SDS011;72520;55.762;37.780;2024-01-06T08:30:18;13.35;;;5.97;;
82783;SDS011;72520;55.762;37.780;2024-01-06T08:33:21;20.83;;;4.85;;
82783;SDS011;72520;55.762;37.780;2024-01-06T08:36:23;11.00;;;5.10;;
82783;SDS011;72520;55.762;37.780;2024-01-06T08:39:25;18.05;;;4.65;;
82783;SDS011;72520;55.762;37.780;2024-01-06T08:42:27;6.05;;;3.15;;
82783;SDS011;72520;55.762;37.780;2024-01-06T08:45:32;10.25;;;3.35;;
82783;SDS011;72520;55.762;37.780;2024-01-06T08:48:34;9.02;;;3.45;;
82783;SDS011;72520;55.762;37.780;2024-01-06T08:51:36;15.18;;;5.78;;
82783;SDS011;72520;55.762;37.780;2024-01-06T08:54:39;22.92;;;6.68;;
82783;SDS011;72520;55.762;37.780;2024-01-06T08:57:41;15.48;;;5.90;;
82783;SDS011;72520;55.762;37.780;2024-01-06T09:00:45;5.97;;;3.53;;
82783;SDS011;72520;55.762;37.780;2024-01-06T09:03:47;12.20;;;6.22;;
82783;SDS011;72520;55.762;37.780;2024-01-06T09:06:50;10.70;;;5.05;;
82783;SDS011;72520;55.762;37.780;2024-01-06T09:09:53;4.88;;;2.35;;
82783;SDS011;72520;55.762;37.780;2024-01-06T09:12:55;6.32;;;3.33;;
82783;SDS011;72520;55.762;37.780;2024-01-06T09:15:59;21.90;;;6.40;;
82783;SDS011;72520;55.762;37.780;2024-01-06T09:19:01;6.50;;;2.95;;
82783;SDS011;72520;55.762;37.780;2024-01-06T09:22:04;15.27;;;4.97;;
82783;SDS011;72520;55.762;37.780;2024-01-06T09:25:06;20.08;;;6.57;;
82783;SDS011;72520;55.762;37.780;2024-01-06T09:28:13;12.13;;;5.13;;
82783;SDS011;72520;55.762;37.780;2024-01-06T09:31:17;19.92;;;6.60;;
82783;SDS011;72520;55.762;37.780;2024-01-06T09:34:19;12.43;;;5.32;;
82783;SDS011;72520;55.762;37.780;2024-01-06T09:37:27;7.15;;;3.00;;
82783;SDS011;72520;55.762;37.780;2024-01-06T09:40:34;9.40;;;3.58;;
82783;SDS011;72520;55.762;37.780;2024-01-06T09:43:41;9.68;;;2.95;;
82783;SDS011;72520;55.762;37.780;2024-01-06T09:46:45;18.77;;;5.45;;
82783;SDS011;72520;55.762;37.780;2024-01-06T09:49:48;10.32;;;3.75;;
82783;SDS011;72520;55.762;37.780;2024-01-06T09:52:51;18.73;;;6.43;;
82783;SDS011;72520;55.762;37.780;2024-01-06T09:56:05;14.77;;;5.60;;
82783;SDS011;72520;55.762;37.780;2024-01-06T09:59:09;7.47;;;3.78;;
82783;SDS011;72520;55.762;37.780;2024-01-06T10:02:12;11.32;;;5.35;;
82783;SDS011;72520;55.762;37.780;2024-01-06T10:05:17;17.77;;;5.88;;
82783;SDS011;72520;55.762;37.780;2024-01-06T10:08:20;14.77;;;6.03;;
82783;SDS011;72520;55.762;37.780;2024-01-06T10:11:22;9.43;;;5.13;;
82783;SDS011;72520;55.762;37.780;2024-01-06T10:14:24;17.52;;;6.22;;
82783;SDS011;72520;55.762;37.780;2024-01-06T10:17:28;9.65;;;3.67;;
82783;SDS011;72520;55.762;37.780;2024-01-06T10:20:31;15.10;;;6.15;;
82783;SDS011;72520;55.762;37.780;2024-01-06T10:23:33;14.43;;;5.57;;
82783;SDS011;72520;55.762;37.780;2024-01-06T10:26:37;20.00;;;5.32;;
82783;SDS011;72520;55.762;37.780;2024-01-06T10:29:40;22.23;;;7.40;;
82783;SDS011;72520;55.762;37.780;2024-01-06T10:32:44;14.90;;;5.35;;
82783;SDS011;72520;55.762;37.780;2024-01-06T10:35:46;21.08;;;5.63;;
82783;SDS011;72520;55.762;37.780;2024-01-06T10:38:49;14.00;;;5.88;;
82783;SDS011;72520;55.762;37.780;2024-01-06T10:41:52;21.23;;;6.63;;
82783;SDS011;72520;55.762;37.780;2024-01-06T10:44:56;11.10;;;5.53;;
82783;SDS011;72520;55.762;37.780;2024-01-06T10:48:00;18.35;;;6.22;;
82783;SDS011;72520;55.762;37.780;2024-01-06T10:51:06;11.15;;;4.78;;
82783;SDS011;72520;55.762;37.780;2024-01-06T10:54:08;10.75;;;5.82;;
82783;SDS011;72520;55.762;37.780;2024-01-06T10:57:13;19.67;;;7.80;;
82783;SDS011;72520;55.762;37.780;2024-01-06T11:00:19;14.80;;;5.63;;
82783;SDS011;72520;55.762;37.780;2024-01-06T11:03:23;14.25;;;4.75;;
82783;SDS011;72520;55.762;37.780;2024-01-06T11:06:26;20.92;;;6.88;;
82783;SDS011;72520;55.762;37.780;2024-01-06T11:09:31;15.65;;;6.93;;
82783;SDS011;72520;55.762;37.780;2024-01-06T11:12:36;13.82;;;4.70;;
82783;SDS011;72520;55.762;37.780;2024-01-06T11:18:45;18.02;;;7.25;;
82783;SDS011;72520;55.762;37.780;2024-01-06T11:21:48;18.98;;;6.53;;
82783;SDS011;72520;55.762;37.780;2024-01-06T11:24:51;15.10;;;7.15;;
82783;SDS011;72520;55.762;37.780;2024-01-06T11:28:05;20.10;;;7.47;;
82783;SDS011;72520;55.762;37.780;2024-01-06T11:31:09;21.23;;;6.50;;
82783;SDS011;72520;55.762;37.780;2024-01-06T11:34:14;15.25;;;6.88;;
82783;SDS011;72520;55.762;37.780;2024-01-06T11:37:19;14.90;;;6.10;;
82783;SDS011;72520;55.762;37.780;2024-01-06T11:40:31;23.02;;;7.15;;
82783;SDS011;72520;55.762;37.780;2024-01-06T11:43:43;28.13;;;10.73;;
82783;SDS011;72520;55.762;37.780;2024-01-06T11:46:47;16.85;;;7.15;;
82783;SDS011;72520;55.762;37.780;2024-01-06T11:49:53;16.00;;;6.65;;
82783;SDS011;72520;55.762;37.780;2024-01-06T11:52:57;16.85;;;5.53;;
82783;SDS011;72520;55.762;37.780;2024-01-06T11:56:01;23.58;;;5.72;;
82783;SDS011;72520;55.762;37.780;2024-01-06T11:59:05;16.45;;;6.78;;
82783;SDS011;72520;55.762;37.780;2024-01-06T12:02:10;18.38;;;5.43;;
82783;SDS011;72520;55.762;37.780;2024-01-06T12:05:15;19.65;;;7.38;;
82783;SDS011;72520;55.762;37.780;2024-01-06T12:08:18;15.77;;;6.47;;
82783;SDS011;72520;55.762;37.780;2024-01-06T12:11:21;25.52;;;6.50;;
82783;SDS011;72520;55.762;37.780;2024-01-06T12:14:23;20.25;;;6.45;;
82783;SDS011;72520;55.762;37.780;2024-01-06T12:17:27;16.30;;;7.38;;
82783;SDS011;72520;55.762;37.780;2024-01-06T12:20:37;17.42;;;6.90;;
82783;SDS011;72520;55.762;37.780;2024-01-06T12:23:40;18.05;;;7.43;;
82783;SDS011;72520;55.762;37.780;2024-01-06T12:26:44;16.00;;;7.32;;
82783;SDS011;72520;55.762;37.780;2024-01-06T12:29:46;23.85;;;8.25;;
82783;SDS011;72520;55.762;37.780;2024-01-06T12:32:50;21.63;;;8.52;;
82783;SDS011;72520;55.762;37.780;2024-01-06T12:35:54;14.35;;;5.65;;
82783;SDS011;72520;55.762;37.780;2024-01-06T12:38:57;17.45;;;7.13;;
82783;SDS011;72520;55.762;37.780;2024-01-06T12:42:08;14.15;;;5.70;;
82783;SDS011;72520;55.762;37.780;2024-01-06T12:45:10;19.63;;;6.70;;
82783;SDS011;72520;55.762;37.780;2024-01-06T12:48:13;17.15;;;6.78;;
82783;SDS011;72520;55.762;37.780;2024-01-06T12:51:16;14.05;;;5.25;;
82783;SDS011;72520;55.762;37.780;2024-01-06T12:54:19;24.67;;;7.65;;
82783;SDS011;72520;55.762;37.780;2024-01-06T12:57:21;19.05;;;8.38;;
82783;SDS011;72520;55.762;37.780;2024-01-06T13:00:23;19.35;;;6.40;;
82783;SDS011;72520;55.762;37.780;2024-01-06T13:03:26;19.02;;;6.47;;
82783;SDS011;72520;55.762;37.780;2024-01-06T13:06:30;16.73;;;6.72;;
82783;SDS011;72520;55.762;37.780;2024-01-06T13:09:32;11.95;;;5.75;;
82783;SDS011;72520;55.762;37.780;2024-01-06T13:12:34;20.80;;;8.60;;
82783;SDS011;72520;55.762;37.780;2024-01-06T13:15:37;11.75;;;6.63;;
82783;SDS011;72520;55.762;37.780;2024-01-06T13:18:39;14.10;;;7.05;;
82783;SDS011;72520;55.762;37.780;2024-01-06T13:21:43;9.60;;;4.30;;
82783;SDS011;72520;55.762;37.780;2024-01-06T13:24:45;16.80;;;6.45;;
82783;SDS011;72520;55.762;37.780;2024-01-06T13:27:48;17.15;;;5.47;;
82783;SDS011;72520;55.762;37.780;2024-01-06T13:30:50;9.77;;;5.32;;
82783;SDS011;72520;55.762;37.780;2024-01-06T13:38:07;18.85;;;6.20;;
82783;SDS011;72520;55.762;37.780;2024-01-06T13:41:10;24.48;;;8.05;;
82783;SDS011;72520;55.762;37.780;2024-01-06T13:44:12;22.83;;;8.00;;
82783;SDS011;72520;55.762;37.780;2024-01-06T13:47:15;22.02;;;7.72;;
82783;SDS011;72520;55.762;37.780;2024-01-06T13:50:17;14.95;;;5.85;;
82783;SDS011;72520;55.762;37.780;2024-01-06T13:53:21;24.35;;;8.15;;
82783;SDS011;72520;55.762;37.780;2024-01-06T13:56:24;20.50;;;8.85;;
82783;SDS011;72520;55.762;37.780;2024-01-06T13:59:26;21.30;;;6.95;;
82783;SDS011;72520;55.762;37.780;2024-01-06T14:02:28;20.52;;;7.32;;
82783;SDS011;72520;55.762;37.780;2024-01-06T14:05:31;22.17;;;7.25;;
82783;SDS011;72520;55.762;37.780;2024-01-06T14:08:34;27.23;;;6.30;;
82783;SDS011;72520;55.762;37.780;2024-01-06T14:11:37;20.35;;;8.43;;
82783;SDS011;72520;55.762;37.780;2024-01-06T14:14:39;19.48;;;6.60;;
82783;SDS011;72520;55.762;37.780;2024-01-06T14:17:41;20.83;;;6.40;;
82783;SDS011;72520;55.762;37.780;2024-01-06T14:20:49;18.00;;;6.53;;
82783;SDS011;72520;55.762;37.780;2024-01-06T14:23:53;19.70;;;6.18;;
82783;SDS011;72520;55.762;37.780;2024-01-06T14:26:55;26.35;;;5.90;;
82783;SDS011;72520;55.762;37.780;2024-01-06T14:29:58;17.80;;;5.40;;
82783;SDS011;72520;55.762;37.780;2024-01-06T14:33:01;17.48;;;6.35;;
82783;SDS011;72520;55.762;37.780;2024-01-06T14:36:04;11.55;;;5.78;;
82783;SDS011;72520;55.762;37.780;2024-01-06T14:39:08;16.60;;;7.20;;
82783;SDS011;72520;55.762;37.780;2024-01-06T14:42:10;20.23;;;7.78;;
82783;SDS011;72520;55.762;37.780;2024-01-06T14:45:13;17.90;;;7.03;;
82783;SDS011;72520;55.762;37.780;2024-01-06T14:48:23;20.25;;;6.63;;
82783;SDS011;72520;55.762;37.780;2024-01-06T14:51:25;20.45;;;8.50;;
82783;SDS011;72520;55.762;37.780;2024-01-06T14:54:29;22.83;;;6.95;;
82783;SDS011;72520;55.762;37.780;2024-01-06T14:57:33;13.60;;;6.55;;
82783;SDS011;72520;55.762;37.780;2024-01-06T15:00:35;13.77;;;6.43;;
82783;SDS011;72520;55.762;37.780;2024-01-06T15:03:38;15.88;;;6.10;;
82783;SDS011;72520;55.762;37.780;2024-01-06T15:06:40;17.00;;;6.75;;
82783;SDS011;72520;55.762;37.780;2024-01-06T15:09:46;14.05;;;5.90;;
82783;SDS011;72520;55.762;37.780;2024-01-06T15:12:49;15.00;;;7.13;;
82783;SDS011;72520;55.762;37.780;2024-01-06T15:15:51;14.30;;;5.75;;
82783;SDS011;72520;55.762;37.780;2024-01-06T15:18:54;14.85;;;6.35;;
82783;SDS011;72520;55.762;37.780;2024-01-06T15:22:00;10.80;;;5.43;;
82783;SDS011;72520;55.762;37.780;2024-01-06T15:25:04;21.27;;;7.43;;
82783;SDS011;72520;55.762;37.780;2024-01-06T15:28:07;20.45;;;6.68;;
82783;SDS011;72520;55.762;37.780;2024-01-06T15:31:10;18.65;;;6.82;;
82783;SDS011;72520;55.762;37.780;2024-01-06T15:34:12;19.83;;;6.65;;
82783;SDS011;72520;55.762;37.780;2024-01-06T15:37:14;19.48;;;7.72;;
82783;SDS011;72520;55.762;37.780;2024-01-06T15:40:18;13.48;;;6.07;;
82783;SDS011;72520;55.762;37.780;2024-01-06T15:43:21;9.20;;;4.45;;
82783;SDS011;72520;55.762;37.780;2024-01-06T15:46:23;12.50;;;5.97;;
82783;SDS011;72520;55.762;37.780;2024-01-06T15:49:25;16.73;;;5.88;;
82783;SDS011;72520;55.762;37.780;2024-01-06T15:52:28;13.25;;;5.60;;
82783;SDS011;72520;55.762;37.780;2024-01-06T15:55:31;14.35;;;6.80;;
82783;SDS011;72520;55.762;37.780;2024-01-06T15:58:34;17.52;;;5.57;;
82783;SDS011;72520;55.762;37.780;2024-01-06T16:01:36;18.27;;;5.97;;
82783;SDS011;72520;55.762;37.780;2024-01-06T16:04:38;12.30;;;6.10;;
82783;SDS011;72520;55.762;37.780;2024-01-06T16:07:40;17.52;;;5.45;;
82783;SDS011;72520;55.762;37.780;2024-01-06T16:10:44;17.80;;;6.88;;
82783;SDS011;72520;55.762;37.780;2024-01-06T16:13:47;11.82;;;5.55;;
82783;SDS011;72520;55.762;37.780;2024-01-06T16:16:49;15.82;;;7.13;;
82783;SDS011;72520;55.762;37.780;2024-01-06T16:19:54;13.55;;;5.63;;
82783;SDS011;72520;55.762;37.780;2024-01-06T16:22:56;21.65;;;6.57;;
82783;SDS011;72520;55.762;37.780;2024-01-06T16:26:00;11.65;;;5.07;;
82783;SDS011;72520;55.762;37.780;2024-01-06T16:29:02;15.65;;;7.25;;
82783;SDS011;72520;55.762;37.780;2024-01-06T16:32:05;10.27;;;4.93;;
82783;SDS011;72520;55.762;37.780;2024-01-06T16:35:07;10.20;;;5.43;;
82783;SDS011;72520;55.762;37.780;2024-01-06T16:38:10;17.00;;;6.93;;
82783;SDS011;72520;55.762;37.780;2024-01-06T16:41:14;13.90;;;5.82;;
82783;SDS011;72520;55.762;37.780;2024-01-06T16:44:16;18.75;;;6.35;;
82783;SDS011;72520;55.762;37.780;2024-01-06T16:47:19;17.63;;;5.93;;
82783;SDS011;72520;55.762;37.780;2024-01-06T16:50:21;14.85;;;5.30;;
82783;SDS011;72520;55.762;37.780;2024-01-06T16:53:23;12.98;;;4.93;;
82783;SDS011;72520;55.762;37.780;2024-01-06T16:56:27;18.35;;;5.63;;
82783;SDS011;72520;55.762;37.780;2024-01-06T16:59:30;13.68;;;5.10;;
82783;SDS011;72520;55.762;37.780;2024-01-06T17:02:34;14.98;;;5.57;;
82783;SDS011;72520;55.762;37.780;2024-01-06T17:05:37;15.10;;;5.63;;
82783;SDS011;72520;55.762;37.780;2024-01-06T17:08:39;11.77;;;5.40;;
82783;SDS011;72520;55.762;37.780;2024-01-06T17:11:43;13.38;;;6.15;;
82783;SDS011;72520;55.762;37.780;2024-01-06T17:14:46;14.70;;;6.18;;
82783;SDS011;72520;55.762;37.780;2024-01-06T17:17:48;8.27;;;4.40;;
82783;SDS011;72520;55.762;37.780;2024-01-06T17:20:50;17.00;;;5.15;;
82783;SDS011;72520;55.762;37.780;2024-01-06T17:23:52;23.10;;;6.78;;
82783;SDS011;72520;55.762;37.780;2024-01-06T17:26:57;18.50;;;5.93;;
82783;SDS011;72520;55.762;37.780;2024-01-06T17:29:59;18.60;;;6.30;;
82783;SDS011;72520;55.762;37.780;2024-01-06T17:33:05;15.57;;;4.70;;
82783;SDS011;72520;55.762;37.780;2024-01-06T17:36:07;13.57;;;4.35;;
82783;SDS011;72520;55.762;37.780;2024-01-06T17:39:10;16.35;;;5.47;;
82783;SDS011;72520;55.762;37.780;2024-01-06T17:42:13;15.48;;;6.45;;
82783;SDS011;72520;55.762;37.780;2024-01-06T17:45:16;20.35;;;6.18;;
82783;SDS011;72520;55.762;37.780;2024-01-06T17:48:18;10.45;;;4.93;;
82783;SDS011;72520;55.762;37.780;2024-01-06T17:51:20;18.92;;;4.65;;
82783;SDS011;72520;55.762;37.780;2024-01-06T17:54:25;12.60;;;5.65;;
82783;SDS011;72520;55.762;37.780;2024-01-06T17:57:28;9.15;;;5.03;;
82783;SDS011;72520;55.762;37.780;2024-01-06T18:00:34;8.55;;;4.78;;
82783;SDS011;72520;55.762;37.780;2024-01-06T18:03:37;8.82;;;4.47;;
82783;SDS011;72520;55.762;37.780;2024-01-06T18:06:39;21.00;;;7.88;;
82783;SDS011;72520;55.762;37.780;2024-01-06T18:09:43;16.10;;;5.53;;
82783;SDS011;72520;55.762;37.780;2024-01-06T18:12:47;9.50;;;4.53;;